createdAt,value
2018-03-16T00:01:32.675Z,4.10
2018-03-16T00:04:03.127Z,4.20
2018-03-16T00:06:32.155Z,4.10
2018-03-16T00:09:00.583Z,4.20
2018-03-16T00:11:29.011Z,4.10
2018-03-16T00:13:58.135Z,4.10
2018-03-16T00:16:26.523Z,4.10
2018-03-16T00:18:54.909Z,4.20
2018-03-16T00:21:23.284Z,4.20
2018-03-16T00:23:52.460Z,4.10
2018-03-16T00:26:20.850Z,4.10
2018-03-16T00:28:49.228Z,4.10
2018-03-16T00:31:17.627Z,4.10
2018-03-16T00:33:46.073Z,4.10
2018-03-16T00:36:14.487Z,4.10
2018-03-16T00:38:42.914Z,4.10
2018-03-16T00:41:11.269Z,4.10
2018-03-16T00:43:39.703Z,4.10
2018-03-16T00:46:08.069Z,4.10
2018-03-16T00:48:36.459Z,4.10
2018-03-16T00:51:04.864Z,4.10
2018-03-16T00:53:33.246Z,4.00
2018-03-16T00:56:01.635Z,4.10
2018-03-16T00:58:30.015Z,4.00
2018-03-16T01:00:58.415Z,4.00
2018-03-16T01:03:27.580Z,4.00
2018-03-16T01:05:55.926Z,4.00
2018-03-16T01:08:24.331Z,4.10
2018-03-16T01:10:52.755Z,4.10
2018-03-16T01:13:21.121Z,4.10
2018-03-16T01:15:50.273Z,4.10
2018-03-16T01:18:18.681Z,4.10
2018-03-16T01:20:47.058Z,4.10
2018-03-16T01:23:15.422Z,4.10
2018-03-16T01:25:43.833Z,4.10
2018-03-16T01:28:13.332Z,4.00
2018-03-16T01:30:41.793Z,4.00
2018-03-16T01:33:10.198Z,4.00
2018-03-16T01:35:39.375Z,4.00
2018-03-16T01:38:07.789Z,4.00
2018-03-16T01:40:36.188Z,4.00
2018-03-16T01:43:04.593Z,4.00
2018-03-16T01:45:32.968Z,3.90
2018-03-16T01:48:01.362Z,3.90
2018-03-16T01:50:29.757Z,3.90
2018-03-16T01:53:10.833Z,3.90
2018-03-16T01:55:39.993Z,4.00
2018-03-16T01:58:08.405Z,4.00
2018-03-16T02:00:37.609Z,4.00
2018-03-16T02:03:06.754Z,4.00
2018-03-16T02:05:35.132Z,4.00
2018-03-16T02:08:03.555Z,4.00
2018-03-16T02:10:32.690Z,4.00
2018-03-16T02:13:01.093Z,4.00
2018-03-16T02:15:29.608Z,4.00
2018-03-16T02:17:58.775Z,4.00
2018-03-16T02:20:27.210Z,4.00
2018-03-16T02:22:55.582Z,4.00
2018-03-16T02:25:24.022Z,4.00
2018-03-16T02:27:52.407Z,4.00
2018-03-16T02:30:20.778Z,4.00
2018-03-16T02:32:49.190Z,4.00
2018-03-16T02:35:17.556Z,4.00
2018-03-16T02:37:46.733Z,3.90
2018-03-16T02:40:15.148Z,3.90
2018-03-16T02:42:43.564Z,3.90
2018-03-16T02:45:11.974Z,3.90
2018-03-16T02:47:40.363Z,3.90
2018-03-16T02:50:09.558Z,4.00
2018-03-16T02:52:38.699Z,3.90
2018-03-16T02:55:07.096Z,3.90
2018-03-16T02:57:35.507Z,3.90
2018-03-16T03:00:03.987Z,3.90
2018-03-16T03:02:33.158Z,3.90
2018-03-16T03:05:01.556Z,3.90
2018-03-16T03:07:29.954Z,3.90
2018-03-16T03:09:58.342Z,3.90
2018-03-16T03:12:26.728Z,3.90
2018-03-16T03:14:55.131Z,3.90
2018-03-16T03:17:23.505Z,3.90
2018-03-16T03:19:51.913Z,3.80
2018-03-16T03:22:20.326Z,3.80
2018-03-16T03:24:48.721Z,3.80
2018-03-16T03:27:17.155Z,3.80
2018-03-16T03:29:45.541Z,3.80
2018-03-16T03:32:14.680Z,3.80
2018-03-16T03:34:43.098Z,3.80
2018-03-16T03:37:11.534Z,3.80
2018-03-16T03:39:39.911Z,3.80
2018-03-16T03:42:08.293Z,3.80
2018-03-16T03:44:36.664Z,3.70
2018-03-16T03:47:05.074Z,3.70
2018-03-16T03:49:33.430Z,3.80
2018-03-16T03:52:01.787Z,3.70
2018-03-16T03:54:30.207Z,3.70
2018-03-16T03:56:58.565Z,3.70
2018-03-16T03:59:26.964Z,3.70
2018-03-16T04:01:55.361Z,3.70
2018-03-16T04:04:23.768Z,3.70
2018-03-16T04:06:52.183Z,3.60
2018-03-16T04:09:20.549Z,3.60
2018-03-16T04:11:48.977Z,3.60
2018-03-16T04:14:17.360Z,3.60
2018-03-16T04:16:46.520Z,3.60
2018-03-16T04:19:14.900Z,3.50
2018-03-16T04:21:43.297Z,3.50
2018-03-16T04:24:11.673Z,3.50
2018-03-16T04:26:40.093Z,3.50
2018-03-16T04:29:08.485Z,3.50
2018-03-16T04:31:36.873Z,3.50
2018-03-16T04:34:06.037Z,3.50
2018-03-16T04:36:34.400Z,3.50
2018-03-16T04:39:03.714Z,3.50
2018-03-16T04:41:32.076Z,3.40
2018-03-16T04:44:01.217Z,3.40
2018-03-16T04:46:29.612Z,3.40
2018-03-16T04:48:58.010Z,3.40
2018-03-16T04:51:26.423Z,3.40
2018-03-16T04:53:54.806Z,3.40
2018-03-16T04:56:23.607Z,3.30
2018-03-16T04:58:52.040Z,3.30
2018-03-16T05:01:20.443Z,3.30
2018-03-16T05:03:49.618Z,3.30
2018-03-16T05:06:18.010Z,3.30
2018-03-16T05:08:47.168Z,3.30
2018-03-16T05:11:15.550Z,3.20
2018-03-16T05:13:43.959Z,3.30
2018-03-16T05:16:12.391Z,3.30
2018-03-16T05:18:40.746Z,3.30
2018-03-16T05:21:09.130Z,3.30
2018-03-16T05:23:37.558Z,3.20
2018-03-16T05:26:05.939Z,3.20
2018-03-16T05:28:34.348Z,3.30
2018-03-16T05:31:02.734Z,3.30
2018-03-16T05:33:31.118Z,3.20
2018-03-16T05:35:59.558Z,3.30
2018-03-16T05:38:28.707Z,3.20
2018-03-16T05:40:57.086Z,3.20
2018-03-16T05:43:25.509Z,3.20
2018-03-16T05:45:54.635Z,3.20
2018-03-16T05:48:23.032Z,3.20
2018-03-16T05:50:51.448Z,3.20
2018-03-16T05:53:19.854Z,3.20
2018-03-16T05:55:48.267Z,3.20
2018-03-16T05:58:16.646Z,3.20
2018-03-16T06:00:45.059Z,3.20
2018-03-16T06:03:14.266Z,3.20
2018-03-16T06:05:43.406Z,3.20
2018-03-16T06:08:11.803Z,3.20
2018-03-16T06:10:40.218Z,3.20
2018-03-16T06:13:09.355Z,3.20
2018-03-16T06:15:37.768Z,3.20
2018-03-16T06:18:06.144Z,3.20
2018-03-16T06:20:34.527Z,3.20
2018-03-16T06:23:02.951Z,3.20
2018-03-16T06:25:31.329Z,3.20
2018-03-16T06:27:59.721Z,3.20
2018-03-16T06:30:28.087Z,3.10
2018-03-16T06:32:56.539Z,3.10
2018-03-16T06:35:24.936Z,3.10
2018-03-16T06:37:53.323Z,3.10
2018-03-16T06:40:21.766Z,3.00
2018-03-16T06:42:50.153Z,3.00
2018-03-16T06:45:19.311Z,3.00
2018-03-16T06:47:47.730Z,2.90
2018-03-16T06:50:16.917Z,2.90
2018-03-16T06:52:45.323Z,2.90
2018-03-16T06:55:13.740Z,2.90
2018-03-16T06:57:42.108Z,2.90
2018-03-16T07:00:10.528Z,2.90
2018-03-16T07:02:38.891Z,2.90
2018-03-16T07:05:07.257Z,2.90
2018-03-16T07:07:35.687Z,3.00
2018-03-16T07:10:04.203Z,2.90
2018-03-16T07:12:32.613Z,2.90
2018-03-16T07:15:12.971Z,2.90
2018-03-16T07:17:41.399Z,2.80
2018-03-16T07:20:09.783Z,2.80
2018-03-16T07:22:38.176Z,2.80
2018-03-16T07:25:06.532Z,2.80
2018-03-16T07:27:34.939Z,2.70
2018-03-16T07:30:03.441Z,2.70
2018-03-16T07:32:31.865Z,2.70
2018-03-16T07:35:00.287Z,2.70
2018-03-16T07:37:28.688Z,2.60
2018-03-16T07:39:57.091Z,2.60
2018-03-16T07:42:25.488Z,2.60
2018-03-16T07:44:53.920Z,2.60
2018-03-16T07:47:22.318Z,2.50
2018-03-16T07:49:51.480Z,2.60
2018-03-16T07:52:19.862Z,2.60
2018-03-16T07:54:48.269Z,2.50
2018-03-16T07:57:17.452Z,2.60
2018-03-16T07:59:45.876Z,2.50
2018-03-16T08:02:14.255Z,2.50
2018-03-16T08:04:42.652Z,2.50
2018-03-16T08:07:11.038Z,2.50
2018-03-16T08:09:39.451Z,2.50
2018-03-16T08:12:08.583Z,2.40
2018-03-16T08:14:37.012Z,2.40
2018-03-16T08:17:05.388Z,2.40
2018-03-16T08:19:33.783Z,2.40
2018-03-16T08:22:02.995Z,2.30
2018-03-16T08:24:31.410Z,2.30
2018-03-16T08:26:59.808Z,2.30
2018-03-16T08:29:28.178Z,2.30
2018-03-16T08:31:56.613Z,2.40
2018-03-16T08:34:25.056Z,2.40
2018-03-16T08:36:53.437Z,2.40
2018-03-16T08:39:21.860Z,2.30
2018-03-16T08:41:50.247Z,2.20
2018-03-16T08:44:18.680Z,2.10
2018-03-16T08:46:49.983Z,2.00
2018-03-16T08:49:18.365Z,1.90
2018-03-16T08:51:46.778Z,1.90
2018-03-16T08:54:15.187Z,2.00
2018-03-16T08:56:43.601Z,1.90
2018-03-16T08:59:12.051Z,1.90
2018-03-16T09:01:40.498Z,1.90
2018-03-16T09:04:09.709Z,1.80
2018-03-16T09:06:38.107Z,1.80
2018-03-16T09:09:06.553Z,1.70
2018-03-16T09:11:35.754Z,1.70
2018-03-16T09:14:04.982Z,1.80
2018-03-16T09:16:33.406Z,1.80
2018-03-16T09:19:01.847Z,1.70
2018-03-16T09:21:30.272Z,1.80
2018-03-16T09:23:59.124Z,1.80
2018-03-16T09:26:27.566Z,1.70
2018-03-16T09:28:56.034Z,1.60
2018-03-16T09:31:25.245Z,1.70
2018-03-16T09:33:53.733Z,1.60
2018-03-16T09:36:22.166Z,1.60
2018-03-16T09:38:50.607Z,1.70
2018-03-16T09:41:22.246Z,1.60
2018-03-16T09:43:50.671Z,1.60
2018-03-16T09:46:19.117Z,1.60
2018-03-16T09:48:47.533Z,1.60
2018-03-16T09:51:15.978Z,1.60
2018-03-16T09:53:44.444Z,1.70
2018-03-16T09:56:12.940Z,1.70
2018-03-16T09:58:41.424Z,1.70
2018-03-16T10:01:09.902Z,1.70
2018-03-16T10:03:38.325Z,1.70
2018-03-16T10:06:07.981Z,1.70
2018-03-16T10:08:36.753Z,1.70
2018-03-16T10:11:05.202Z,1.70
2018-03-16T10:13:33.665Z,1.80
2018-03-16T10:16:02.133Z,2.00
2018-03-16T10:18:30.595Z,1.90
2018-03-16T10:20:59.039Z,1.90
2018-03-16T10:23:28.272Z,1.90
2018-03-16T10:25:58.330Z,1.80
2018-03-16T10:28:27.550Z,2.00
2018-03-16T10:30:56.748Z,2.00
2018-03-16T10:33:25.175Z,2.00
2018-03-16T10:35:53.634Z,2.00
2018-03-16T10:38:22.101Z,1.90
2018-03-16T10:40:50.588Z,2.00
2018-03-16T10:43:19.006Z,2.00
2018-03-16T10:45:47.474Z,2.10
2018-03-16T10:48:15.919Z,2.10
2018-03-16T10:50:44.384Z,2.20
2018-03-16T10:53:12.813Z,2.10
2018-03-16T10:55:41.266Z,2.10
2018-03-16T10:58:09.766Z,2.20
2018-03-16T11:00:43.742Z,2.20
2018-03-16T11:03:15.147Z,2.30
2018-03-16T11:05:51.038Z,2.40
2018-03-16T11:08:26.478Z,2.50
2018-03-16T11:11:01.218Z,2.60
2018-03-16T11:13:30.483Z,2.50
2018-03-16T11:15:58.956Z,2.50
2018-03-16T11:18:27.456Z,2.40
2018-03-16T11:20:56.661Z,2.20
2018-03-16T11:23:25.076Z,2.20
2018-03-16T11:25:53.540Z,2.20
2018-03-16T11:28:21.981Z,2.10
2018-03-16T11:30:51.234Z,2.20
2018-03-16T11:33:19.676Z,2.20
2018-03-16T11:35:48.208Z,2.20
2018-03-16T11:38:16.761Z,2.30
2018-03-16T11:40:51.677Z,2.20
2018-03-16T11:43:20.159Z,2.10
2018-03-16T11:45:48.609Z,2.10
2018-03-16T11:48:17.094Z,2.00
2018-03-16T11:50:46.320Z,1.90
2018-03-16T11:53:14.782Z,1.90
2018-03-16T11:55:44.029Z,2.00
2018-03-16T11:58:12.478Z,2.00
2018-03-16T12:00:42.641Z,1.90
2018-03-16T12:03:12.074Z,2.00
2018-03-16T12:05:41.340Z,2.00
2018-03-16T12:08:09.856Z,1.90
2018-03-16T12:10:39.081Z,1.70
2018-03-16T12:13:07.533Z,1.70
2018-03-16T12:15:35.968Z,1.60
2018-03-16T12:18:04.462Z,1.60
2018-03-16T12:20:32.919Z,1.70
2018-03-16T12:23:01.416Z,1.70
2018-03-16T12:25:29.858Z,1.60
2018-03-16T12:27:58.326Z,1.60
2018-03-16T12:30:26.776Z,1.60
2018-03-16T12:32:56.012Z,1.40
2018-03-16T12:35:24.487Z,1.40
2018-03-16T12:37:52.974Z,1.40
2018-03-16T12:40:21.445Z,1.40
2018-03-16T12:42:49.899Z,1.30
2018-03-16T12:45:20.881Z,1.40
2018-03-16T12:47:49.305Z,1.40
2018-03-16T12:50:17.750Z,1.40
2018-03-16T12:52:46.203Z,1.30
2018-03-16T12:55:31.664Z,1.30
2018-03-16T12:58:04.079Z,1.30
2018-03-16T13:00:32.524Z,1.20
2018-03-16T13:03:00.976Z,1.30
2018-03-16T13:05:29.422Z,1.30
2018-03-16T13:07:57.906Z,1.30
2018-03-16T13:10:26.375Z,1.30
2018-03-16T13:12:54.852Z,1.30
2018-03-16T13:15:23.323Z,1.30
2018-03-16T13:17:54.265Z,1.30
2018-03-16T13:20:25.398Z,1.30
2018-03-16T13:22:56.130Z,1.30
2018-03-16T13:25:26.302Z,1.20
2018-03-16T13:27:56.151Z,1.10
2018-03-16T13:30:27.067Z,1.20
2018-03-16T13:32:56.365Z,1.10
2018-03-16T13:35:29.952Z,1.20
2018-03-16T13:38:00.961Z,1.20
2018-03-16T13:40:29.424Z,1.20
2018-03-16T13:42:57.879Z,1.20
2018-03-16T13:45:26.334Z,1.20
2018-03-16T13:47:55.502Z,1.30
2018-03-16T13:50:24.008Z,1.30
2018-03-16T13:52:52.463Z,1.30
2018-03-16T13:55:20.913Z,1.30
2018-03-16T13:57:49.393Z,1.20
2018-03-16T14:00:17.847Z,1.10
2018-03-16T14:02:47.046Z,1.00
2018-03-16T14:05:15.570Z,1.00
2018-03-16T14:07:46.248Z,1.00
2018-03-16T14:10:14.870Z,0.90
2018-03-16T14:12:43.338Z,0.90
2018-03-16T14:15:11.780Z,0.90
2018-03-16T14:17:40.424Z,1.00
2018-03-16T14:20:08.883Z,0.90
2018-03-16T14:22:37.396Z,0.80
2018-03-16T14:25:07.041Z,0.80
2018-03-16T14:27:36.284Z,0.70
2018-03-16T14:30:04.771Z,0.70
2018-03-16T14:32:33.239Z,0.70
2018-03-16T14:35:01.947Z,0.70
2018-03-16T14:37:30.399Z,0.70
2018-03-16T14:39:58.893Z,0.70
2018-03-16T14:42:27.354Z,0.70
2018-03-16T14:44:55.772Z,0.80
2018-03-16T14:47:24.270Z,0.80
2018-03-16T14:49:52.686Z,0.80
2018-03-16T14:52:21.149Z,0.80
2018-03-16T14:54:50.399Z,0.60
2018-03-16T14:57:18.844Z,0.50
2018-03-16T14:59:47.257Z,0.50
2018-03-16T15:02:15.692Z,0.40
2018-03-16T15:04:44.150Z,0.40
2018-03-16T15:07:13.807Z,0.40
2018-03-16T15:09:42.243Z,0.30
2018-03-16T15:12:10.649Z,0.40
2018-03-16T15:14:39.102Z,0.40
2018-03-16T15:17:08.294Z,0.20
2018-03-16T15:19:37.459Z,0.20
2018-03-16T15:22:06.058Z,0.20
2018-03-16T15:24:34.466Z,0.10
2018-03-16T15:27:02.893Z,0.10
2018-03-16T15:29:31.377Z,0.10
2018-03-16T15:31:59.867Z,0.10
2018-03-16T15:34:28.334Z,0.20
2018-03-16T15:36:56.813Z,0.20
2018-03-16T15:39:25.279Z,0.20
2018-03-16T15:41:53.807Z,0.20
2018-03-16T15:44:22.355Z,0.10
2018-03-16T15:46:50.806Z,0.00
2018-03-16T15:49:19.278Z,0.00
2018-03-16T15:51:49.601Z,0.00
2018-03-16T15:54:18.117Z,0.00
2018-03-16T15:56:46.581Z,0.00
2018-03-16T15:59:15.008Z,0.00
2018-03-16T16:01:44.580Z,0.00
2018-03-16T16:04:13.098Z,0.00
2018-03-16T16:06:42.331Z,0.10
2018-03-16T16:09:10.769Z,0.10
2018-03-16T16:11:39.204Z,0.00
2018-03-16T16:14:07.637Z,0.00
2018-03-16T16:16:36.865Z,0.00
2018-03-16T16:19:05.301Z,0.00
2018-03-16T16:21:35.771Z,0.00
2018-03-16T16:24:04.228Z,0.00
2018-03-16T16:26:33.448Z,-0.10
2018-03-16T16:29:01.872Z,-0.10
2018-03-16T16:31:39.760Z,-0.10
2018-03-16T16:34:08.249Z,-0.10
2018-03-16T16:36:36.722Z,-0.10
2018-03-16T16:39:06.076Z,-0.10
2018-03-16T16:41:34.639Z,-0.20
2018-03-16T16:44:08.490Z,-0.20
2018-03-16T16:46:36.968Z,-0.30
2018-03-16T16:49:07.480Z,-0.30
2018-03-16T16:51:38.540Z,-0.30
2018-03-16T16:54:09.461Z,-0.30
2018-03-16T16:56:39.829Z,-0.30
2018-03-16T16:59:10.643Z,-0.30
2018-03-16T17:01:40.974Z,-0.30
2018-03-16T17:04:11.480Z,-0.40
2018-03-16T17:06:42.022Z,-0.40
2018-03-16T17:09:12.582Z,-0.40
2018-03-16T17:11:43.311Z,-0.50
2018-03-16T17:14:13.805Z,-0.50
2018-03-16T17:16:45.655Z,-0.40
2018-03-16T17:19:14.122Z,-0.40
2018-03-16T17:21:42.587Z,-0.50
2018-03-16T17:24:11.067Z,-0.50
2018-03-16T17:26:39.574Z,-0.50
2018-03-16T17:29:08.025Z,-0.50
2018-03-16T17:31:38.311Z,-0.50
2018-03-16T17:34:09.284Z,-0.50
2018-03-16T17:36:47.021Z,-0.50
2018-03-16T17:39:17.946Z,-0.40
2018-03-16T17:41:48.169Z,-0.40
2018-03-16T17:44:18.559Z,-0.40
2018-03-16T17:46:50.069Z,-0.50
2018-03-16T17:49:18.545Z,-0.50
2018-03-16T17:51:47.014Z,-0.60
2018-03-16T17:54:15.479Z,-0.60
2018-03-16T17:56:43.936Z,-0.70
2018-03-16T17:59:12.379Z,-0.70
2018-03-16T18:01:40.844Z,-0.70
2018-03-16T18:04:09.308Z,-0.70
2018-03-16T18:06:38.390Z,-0.80
2018-03-16T18:09:06.880Z,-0.80
2018-03-16T18:11:35.339Z,-1.00
2018-03-16T18:14:05.238Z,-0.90
2018-03-16T18:16:33.858Z,-0.90
2018-03-16T18:19:02.323Z,-1.00
2018-03-16T18:21:30.765Z,-0.90
2018-03-16T18:23:59.164Z,-0.90
2018-03-16T18:26:27.608Z,-1.00
2018-03-16T18:28:56.110Z,-1.00
2018-03-16T18:31:25.343Z,-1.10
2018-03-16T18:33:54.111Z,-1.10
2018-03-16T18:36:22.577Z,-1.10
2018-03-16T18:38:51.763Z,-1.10
2018-03-16T18:41:20.977Z,-1.10
2018-03-16T18:43:51.104Z,-1.10
2018-03-16T18:46:19.753Z,-1.10
2018-03-16T18:48:48.691Z,-1.00
2018-03-16T18:51:17.780Z,-1.10
2018-03-16T18:53:46.263Z,-1.10
2018-03-16T18:56:14.698Z,-1.20
2018-03-16T18:58:47.855Z,-1.10
2018-03-16T19:01:21.855Z,-1.10
2018-03-16T19:03:50.751Z,-1.00
2018-03-16T19:06:19.480Z,-1.10
2018-03-16T19:08:47.940Z,-1.10
2018-03-16T19:11:16.398Z,-1.20
2018-03-16T19:13:44.820Z,-1.20
2018-03-16T19:16:17.992Z,-1.20
2018-03-16T19:18:53.202Z,-1.20
2018-03-16T19:21:22.355Z,-1.20
2018-03-16T19:23:50.808Z,-1.30
2018-03-16T19:26:19.231Z,-1.30
2018-03-16T19:28:47.752Z,-1.20
2018-03-16T19:31:18.127Z,-1.20
2018-03-16T19:33:46.639Z,-1.20
2018-03-16T19:36:15.060Z,-1.20
2018-03-16T19:38:45.596Z,-1.20
2018-03-16T19:41:14.059Z,-1.20
2018-03-16T19:43:42.505Z,-1.20
2018-03-16T19:46:11.061Z,-1.20
2018-03-16T19:48:39.541Z,-1.20
2018-03-16T19:51:08.013Z,-1.20
2018-03-16T19:53:37.220Z,-1.20
2018-03-16T19:56:05.976Z,-1.30
2018-03-16T19:58:34.471Z,-1.20
2018-03-16T20:01:02.946Z,-1.20
2018-03-16T20:03:33.186Z,-1.20
2018-03-16T20:06:01.932Z,-1.20
2018-03-16T20:08:30.383Z,-1.20
2018-03-16T20:11:05.322Z,-1.20
2018-03-16T20:13:34.147Z,-1.20
2018-03-16T20:16:03.654Z,-1.30
2018-03-16T20:18:37.022Z,-1.30
2018-03-16T20:21:13.846Z,-1.30
2018-03-16T20:23:43.303Z,-1.30
2018-03-16T20:26:11.773Z,-1.30
2018-03-16T20:28:40.223Z,-1.30
2018-03-16T20:31:08.665Z,-1.40
2018-03-16T20:33:37.885Z,-1.40
2018-03-16T20:36:12.373Z,-1.40
2018-03-16T20:38:42.000Z,-1.40
2018-03-16T20:41:10.437Z,-1.40
2018-03-16T20:43:38.877Z,-1.40
2018-03-16T20:46:07.387Z,-1.40
2018-03-16T20:48:37.961Z,-1.40
2018-03-16T20:51:09.364Z,-1.30
2018-03-16T20:53:44.184Z,-1.30
2018-03-16T20:56:13.350Z,-1.30
2018-03-16T20:58:41.804Z,-1.30
2018-03-16T21:01:12.463Z,-1.40
2018-03-16T21:03:40.918Z,-1.50
2018-03-16T21:06:10.107Z,-1.50
2018-03-16T21:08:38.516Z,-1.50
2018-03-16T21:11:07.356Z,-1.50
2018-03-16T21:13:35.811Z,-1.60
2018-03-16T21:16:04.277Z,-1.50
2018-03-16T21:18:32.873Z,-1.60
2018-03-16T21:21:01.302Z,-1.60
2018-03-16T21:23:30.500Z,-1.60
2018-03-16T21:25:59.697Z,-1.60
2018-03-16T21:28:28.928Z,-1.60
2018-03-16T21:30:57.365Z,-1.70
2018-03-16T21:33:25.809Z,-1.60
2018-03-16T21:35:54.446Z,-1.60
2018-03-16T21:38:22.883Z,-1.70
2018-03-16T21:40:51.350Z,-1.70
2018-03-16T21:43:20.193Z,-1.80
2018-03-16T21:45:48.700Z,-1.80
2018-03-16T21:48:17.136Z,-1.80
2018-03-16T21:50:46.108Z,-1.80
2018-03-16T21:53:14.660Z,-1.90
2018-03-16T21:55:43.862Z,-1.90
2018-03-16T21:58:12.359Z,-2.00
2018-03-16T22:00:40.815Z,-2.00
2018-03-16T22:03:09.249Z,-2.00
2018-03-16T22:05:38.480Z,-2.00
2018-03-16T22:08:06.915Z,-2.10
2018-03-16T22:10:35.344Z,-2.10
2018-03-16T22:13:03.778Z,-2.10
2018-03-16T22:15:32.250Z,-2.10
2018-03-16T22:18:02.084Z,-2.10
2018-03-16T22:20:31.322Z,-2.10
2018-03-16T22:22:59.746Z,-2.20
2018-03-16T22:25:28.998Z,-2.10
2018-03-16T22:27:57.521Z,-2.20
2018-03-16T22:30:25.966Z,-2.10
2018-03-16T22:32:54.375Z,-2.20
2018-03-16T22:35:22.820Z,-2.20
2018-03-16T22:37:51.257Z,-2.20
2018-03-16T22:40:20.626Z,-2.20
2018-03-16T22:42:49.054Z,-2.30
2018-03-16T22:45:17.521Z,-2.30
2018-03-16T22:47:46.118Z,-2.30
2018-03-16T22:50:14.965Z,-2.20
2018-03-16T22:52:43.403Z,-2.30
2018-03-16T22:55:11.791Z,-2.30
2018-03-16T22:57:40.246Z,-2.30
2018-03-16T23:00:08.677Z,-2.40
2018-03-16T23:02:37.169Z,-2.40
2018-03-16T23:05:06.485Z,-2.40
2018-03-16T23:07:34.933Z,-2.50
2018-03-16T23:10:03.445Z,-2.50
2018-03-16T23:12:31.922Z,-2.60
2018-03-16T23:15:01.089Z,-2.60
2018-03-16T23:17:29.531Z,-2.70
2018-03-16T23:19:58.150Z,-2.70
2018-03-16T23:22:26.560Z,-2.70
2018-03-16T23:24:54.981Z,-2.70
2018-03-16T23:27:23.416Z,-2.70
2018-03-16T23:29:51.852Z,-2.80
2018-03-16T23:32:20.288Z,-2.80
2018-03-16T23:34:48.736Z,-2.90
2018-03-16T23:37:17.209Z,-2.90
2018-03-16T23:39:45.677Z,-2.90
2018-03-16T23:42:14.141Z,-2.90
2018-03-16T23:44:42.576Z,-2.90
2018-03-16T23:47:11.024Z,-2.90
2018-03-16T23:49:39.465Z,-2.90
2018-03-16T23:52:07.889Z,-2.90
2018-03-16T23:54:36.279Z,-2.90
2018-03-16T23:57:04.742Z,-2.90
2018-03-16T23:59:33.185Z,-2.90
